PWSweather.com
Personal Weather Stations
Station Observations
UWIDEPER1
Brown County, Depere, WI 54115

Brown CountyDepere, WI 54115

Lat: 44.44, Lon: -88.05

Elevation: 610

Station Type: Acurite 5in1

www.depereweather.com

High Low Average
Temperature 27.7°F-2.4°C 22.5°F-5.3°C 25.2°F-3.8°C
Dew Point 24.6°F-4.1°C 20.0°F-6.7°C 22.4°F-5.3°C
Winds 8.1 mph 13.0 kmh Calm Calm 3.0 mph SSW4.8 kmh SSW
Wind Gusts 11.5 mph18.5 kmh -- 3.0 mph4.8 kmh
Humidity 91% 86% 89%
Pressure 30.09 in1019.0 mb 30.00 in1015.9 mb -
Precipitation 0.00 in0.0 mm - -
Hour Temp Dew Point Humidity Winds Wind Gusts Pressure Precip Precip Rate Daily Precip Total
12:00 AM 22.5°F-5.3°C 20.2°F-6.6°C 91% 8.1 mph W13.0 kmh W 8.1 mph13.0 kmh 30.04 in1017.3 mb - 0.00 in0.0 mm 0.00 in0.0 mm
12:10 AM 22.5°F-5.3°C 20.2°F-6.6°C 91% 6.9 mph SW11.1 kmh SW 6.9 mph11.1 kmh 30.03 in1016.9 mb - 0.00 in0.0 mm 0.00 in0.0 mm
12:15 AM 22.5°F-5.3°C 20.2°F-6.6°C 91% 4.6 mph SW7.4 kmh SW 3.5 mph5.6 kmh 30.03 in1016.9 mb - 0.00 in0.0 mm 0.00 in0.0 mm
12:20 AM 22.5°F-5.3°C 20.0°F-6.7°C 90% 5.8 mph WSW9.3 kmh WSW 4.6 mph7.4 kmh 30.03 in1016.9 mb - 0.00 in0.0 mm 0.00 in0.0 mm
12:25 AM 22.6°F-5.2°C 20.1°F-6.6°C 90% 5.8 mph SW9.3 kmh SW 8.1 mph13.0 kmh 30.03 in1016.9 mb - 0.00 in0.0 mm 0.00 in0.0 mm
12:30 AM 22.6°F-5.2°C 20.1°F-6.6°C 90% 4.6 mph WSW7.4 kmh WSW 4.6 mph7.4 kmh 30.03 in1016.9 mb - 0.00 in0.0 mm 0.00 in0.0 mm
12:35 AM 22.6°F-5.2°C 20.1°F-6.6°C 90% 5.8 mph SW9.3 kmh SW 4.6 mph7.4 kmh 30.03 in1016.9 mb - 0.00 in0.0 mm 0.00 in0.0 mm
12:40 AM 22.6°F-5.2°C 20.1°F-6.6°C 90% 5.8 mph SW9.3 kmh SW 8.1 mph13.0 kmh 30.03 in1016.9 mb - 0.00 in0.0 mm 0.00 in0.0 mm
12:45 AM 22.8°F-5.1°C 20.3°F-6.5°C 90% 5.8 mph WSW9.3 kmh WSW 6.9 mph11.1 kmh 30.04 in1017.3 mb - 0.00 in0.0 mm 0.00 in0.0 mm
12:50 AM 22.8°F-5.1°C 20.3°F-6.5°C 90% 4.6 mph SW7.4 kmh SW 4.6 mph7.4 kmh 30.03 in1016.9 mb - 0.00 in0.0 mm 0.00 in0.0 mm
12:55 AM 22.8°F-5.1°C 20.3°F-6.5°C 90% 6.9 mph W11.1 kmh W 5.8 mph9.3 kmh 30.03 in1016.9 mb - 0.00 in0.0 mm 0.00 in0.0 mm
01:00 AM 22.8°F-5.1°C 20.3°F-6.5°C 90% 6.9 mph WSW11.1 kmh WSW 9.2 mph14.8 kmh 30.03 in1016.9 mb - 0.00 in0.0 mm 0.00 in0.0 mm
01:10 AM 23.2°F-4.9°C 20.7°F-6.3°C 90% 6.9 mph W11.1 kmh W 10.4 mph16.7 kmh 30.03 in1016.9 mb - 0.00 in0.0 mm 0.00 in0.0 mm
01:15 AM 23.2°F-4.9°C 20.7°F-6.3°C 90% 5.8 mph WSW9.3 kmh WSW 11.5 mph18.5 kmh 30.03 in1016.9 mb - 0.00 in0.0 mm 0.00 in0.0 mm
01:20 AM 23.2°F-4.9°C 20.7°F-6.3°C 90% 5.8 mph WSW9.3 kmh WSW 5.8 mph9.3 kmh 30.04 in1017.3 mb - 0.00 in0.0 mm 0.00 in0.0 mm
01:25 AM 23.2°F-4.9°C 20.7°F-6.3°C 90% 5.8 mph WSW9.3 kmh WSW 6.9 mph11.1 kmh 30.03 in1016.9 mb - 0.00 in0.0 mm 0.00 in0.0 mm
01:30 AM 23.2°F-4.9°C 20.7°F-6.3°C 90% 3.5 mph W5.6 kmh W 5.8 mph9.3 kmh 30.03 in1016.9 mb - 0.00 in0.0 mm 0.00 in0.0 mm
01:35 AM 23.2°F-4.9°C 20.7°F-6.3°C 90% 4.6 mph W7.4 kmh W 4.6 mph7.4 kmh 30.03 in1016.9 mb - 0.00 in0.0 mm 0.00 in0.0 mm
01:40 AM 23.2°F-4.9°C 20.7°F-6.3°C 90% 4.6 mph SW7.4 kmh SW 5.8 mph9.3 kmh 30.03 in1016.9 mb - 0.00 in0.0 mm 0.00 in0.0 mm
01:45 AM 23.2°F-4.9°C 20.7°F-6.3°C 90% 5.8 mph SW9.3 kmh SW 8.1 mph13.0 kmh 30.03 in1016.9 mb - 0.00 in0.0 mm 0.00 in0.0 mm
01:50 AM 23.2°F-4.9°C 20.7°F-6.3°C 90% 5.8 mph WSW9.3 kmh WSW 3.5 mph5.6 kmh 30.04 in1017.3 mb - 0.00 in0.0 mm 0.00 in0.0 mm
01:55 AM 23.2°F-4.9°C 20.7°F-6.3°C 90% 5.8 mph WSW9.3 kmh WSW 4.6 mph7.4 kmh 30.04 in1017.3 mb - 0.00 in0.0 mm 0.00 in0.0 mm
02:00 AM 23.2°F-4.9°C 20.7°F-6.3°C 90% 4.6 mph W7.4 kmh W 8.1 mph13.0 kmh 30.04 in1017.3 mb - 0.00 in0.0 mm 0.00 in0.0 mm
02:10 AM 23.2°F-4.9°C 20.7°F-6.3°C 90% 5.8 mph W9.3 kmh W 9.2 mph14.8 kmh 30.04 in1017.3 mb - 0.00 in0.0 mm 0.00 in0.0 mm
02:15 AM 23.2°F-4.9°C 20.7°F-6.3°C 90% 5.8 mph SW9.3 kmh SW 5.8 mph9.3 kmh 30.04 in1017.3 mb - 0.00 in0.0 mm 0.00 in0.0 mm
02:20 AM 23.2°F-4.9°C 20.7°F-6.3°C 90% 4.6 mph SW7.4 kmh SW 3.5 mph5.6 kmh 30.05 in1017.6 mb - 0.00 in0.0 mm 0.00 in0.0 mm
02:25 AM 23.2°F-4.9°C 20.7°F-6.3°C 90% 4.6 mph W7.4 kmh W 4.6 mph7.4 kmh 30.05 in1017.6 mb - 0.00 in0.0 mm 0.00 in0.0 mm
02:30 AM 23.2°F-4.9°C 20.7°F-6.3°C 90% 3.5 mph W5.6 kmh W 5.8 mph9.3 kmh 30.04 in1017.3 mb - 0.00 in0.0 mm 0.00 in0.0 mm
02:35 AM 23.2°F-4.9°C 20.7°F-6.3°C 90% 4.6 mph WSW7.4 kmh WSW 6.9 mph11.1 kmh 30.04 in1017.3 mb - 0.00 in0.0 mm 0.00 in0.0 mm
02:40 AM 23.2°F-4.9°C 20.7°F-6.3°C 90% 5.8 mph W9.3 kmh W 8.1 mph13.0 kmh 30.04 in1017.3 mb - 0.00 in0.0 mm 0.00 in0.0 mm
02:45 AM 23.2°F-4.9°C 20.7°F-6.3°C 90% 6.9 mph W11.1 kmh W 9.2 mph14.8 kmh 30.03 in1016.9 mb - 0.00 in0.0 mm 0.00 in0.0 mm
02:50 AM 23.2°F-4.9°C 20.7°F-6.3°C 90% 5.8 mph WSW9.3 kmh WSW 5.8 mph9.3 kmh 30.04 in1017.3 mb - 0.00 in0.0 mm 0.00 in0.0 mm
02:55 AM 23.2°F-4.9°C 20.7°F-6.3°C 90% 5.8 mph WSW9.3 kmh WSW 5.8 mph9.3 kmh 30.04 in1017.3 mb - 0.00 in0.0 mm 0.00 in0.0 mm
03:00 AM 23.2°F-4.9°C 20.7°F-6.3°C 90% 4.6 mph W7.4 kmh W 4.6 mph7.4 kmh 30.04 in1017.3 mb - 0.00 in0.0 mm 0.00 in0.0 mm
03:10 AM 23.2°F-4.9°C 20.7°F-6.3°C 90% 3.5 mph W5.6 kmh W 6.9 mph11.1 kmh 30.04 in1017.3 mb - 0.00 in0.0 mm 0.00 in0.0 mm
03:15 AM 22.8°F-5.1°C 20.3°F-6.5°C 90% 4.6 mph WSW7.4 kmh WSW 4.6 mph7.4 kmh 30.04 in1017.3 mb - 0.00 in0.0 mm 0.00 in0.0 mm
03:20 AM 22.8°F-5.1°C 20.3°F-6.5°C 90% 3.5 mph W5.6 kmh W 3.5 mph5.6 kmh 30.04 in1017.3 mb - 0.00 in0.0 mm 0.00 in0.0 mm
03:25 AM 22.8°F-5.1°C 20.3°F-6.5°C 90% 3.5 mph SW5.6 kmh SW 3.5 mph5.6 kmh 30.04 in1017.3 mb - 0.00 in0.0 mm 0.00 in0.0 mm
03:30 AM 22.8°F-5.1°C 20.3°F-6.5°C 90% 4.6 mph WSW7.4 kmh WSW 9.2 mph14.8 kmh 30.04 in1017.3 mb - 0.00 in0.0 mm 0.00 in0.0 mm
03:35 AM 22.8°F-5.1°C 20.3°F-6.5°C 90% 4.6 mph W7.4 kmh W 6.9 mph11.1 kmh 30.03 in1016.9 mb - 0.00 in0.0 mm 0.00 in0.0 mm
03:40 AM 22.8°F-5.1°C 20.3°F-6.5°C 90% 4.6 mph WSW7.4 kmh WSW 8.1 mph13.0 kmh 30.04 in1017.3 mb - 0.00 in0.0 mm 0.00 in0.0 mm
03:45 AM 22.8°F-5.1°C 20.3°F-6.5°C 90% 4.6 mph NW7.4 kmh NW 4.6 mph7.4 kmh 30.03 in1016.9 mb - 0.00 in0.0 mm 0.00 in0.0 mm
03:50 AM 22.8°F-5.1°C 20.3°F-6.5°C 90% 3.5 mph W5.6 kmh W 8.1 mph13.0 kmh 30.04 in1017.3 mb - 0.00 in0.0 mm 0.00 in0.0 mm
03:55 AM 22.8°F-5.1°C 20.3°F-6.5°C 90% 5.8 mph WSW9.3 kmh WSW 6.9 mph11.1 kmh 30.04 in1017.3 mb - 0.00 in0.0 mm 0.00 in0.0 mm
04:00 AM 22.8°F-5.1°C 20.3°F-6.5°C 90% 4.6 mph WSW7.4 kmh WSW 5.8 mph9.3 kmh 30.04 in1017.3 mb - 0.00 in0.0 mm 0.00 in0.0 mm
04:10 AM 22.8°F-5.1°C 20.3°F-6.5°C 90% 3.5 mph WNW5.6 kmh WNW 3.5 mph5.6 kmh 30.04 in1017.3 mb - 0.00 in0.0 mm 0.00 in0.0 mm
04:15 AM 22.8°F-5.1°C 20.3°F-6.5°C 90% 4.6 mph W7.4 kmh W 3.5 mph5.6 kmh 30.04 in1017.3 mb - 0.00 in0.0 mm 0.00 in0.0 mm
04:20 AM 22.8°F-5.1°C 20.3°F-6.5°C 90% 4.6 mph WNW7.4 kmh WNW 4.6 mph7.4 kmh 30.04 in1017.3 mb - 0.00 in0.0 mm 0.00 in0.0 mm
04:25 AM 22.8°F-5.1°C 20.3°F-6.5°C 90% 4.6 mph W7.4 kmh W 4.6 mph7.4 kmh 30.04 in1017.3 mb - 0.00 in0.0 mm 0.00 in0.0 mm
04:30 AM 22.8°F-5.1°C 20.3°F-6.5°C 90% 3.5 mph W5.6 kmh W 3.5 mph5.6 kmh 30.04 in1017.3 mb - 0.00 in0.0 mm 0.00 in0.0 mm
04:35 AM 22.8°F-5.1°C 20.3°F-6.5°C 90% 4.6 mph W7.4 kmh W 3.5 mph5.6 kmh 30.04 in1017.3 mb - 0.00 in0.0 mm 0.00 in0.0 mm
04:40 AM 22.8°F-5.1°C 20.3°F-6.5°C 90% 4.6 mph W7.4 kmh W 3.5 mph5.6 kmh 30.05 in1017.6 mb - 0.00 in0.0 mm 0.00 in0.0 mm
04:45 AM 22.8°F-5.1°C 20.3°F-6.5°C 90% 2.3 mph W3.7 kmh W 3.5 mph5.6 kmh 30.04 in1017.3 mb - 0.00 in0.0 mm 0.00 in0.0 mm
04:50 AM 22.8°F-5.1°C 20.3°F-6.5°C 90% 2.3 mph WNW3.7 kmh WNW 2.3 mph3.7 kmh 30.04 in1017.3 mb - 0.00 in0.0 mm 0.00 in0.0 mm
04:55 AM 22.8°F-5.1°C 20.3°F-6.5°C 90% 2.3 mph WNW3.7 kmh WNW 3.5 mph5.6 kmh 30.05 in1017.6 mb - 0.00 in0.0 mm 0.00 in0.0 mm
05:00 AM 22.8°F-5.1°C 20.3°F-6.5°C 90% 3.5 mph NW5.6 kmh NW 3.5 mph5.6 kmh 30.04 in1017.3 mb - 0.00 in0.0 mm 0.00 in0.0 mm
05:10 AM 22.8°F-5.1°C 20.3°F-6.5°C 90% 3.5 mph W5.6 kmh W 4.6 mph7.4 kmh 30.04 in1017.3 mb - 0.00 in0.0 mm 0.00 in0.0 mm
05:15 AM 22.8°F-5.1°C 20.3°F-6.5°C 90% 3.5 mph W5.6 kmh W 3.5 mph5.6 kmh 30.04 in1017.3 mb - 0.00 in0.0 mm 0.00 in0.0 mm
05:20 AM 22.8°F-5.1°C 20.3°F-6.5°C 90% 2.3 mph NW3.7 kmh NW 3.5 mph5.6 kmh 30.04 in1017.3 mb - 0.00 in0.0 mm 0.00 in0.0 mm
05:25 AM 22.8°F-5.1°C 20.3°F-6.5°C 90% 3.5 mph W5.6 kmh W 5.8 mph9.3 kmh 30.04 in1017.3 mb - 0.00 in0.0 mm 0.00 in0.0 mm
05:30 AM 22.8°F-5.1°C 20.3°F-6.5°C 90% 3.5 mph WSW5.6 kmh WSW 3.5 mph5.6 kmh 30.04 in1017.3 mb - 0.00 in0.0 mm 0.00 in0.0 mm
05:35 AM 22.8°F-5.1°C 20.3°F-6.5°C 90% 3.5 mph W5.6 kmh W 3.5 mph5.6 kmh 30.04 in1017.3 mb - 0.00 in0.0 mm 0.00 in0.0 mm
05:40 AM 22.6°F-5.2°C 20.1°F-6.6°C 90% 3.5 mph W5.6 kmh W 3.5 mph5.6 kmh 30.03 in1016.9 mb - 0.00 in0.0 mm 0.00 in0.0 mm
05:45 AM 22.6°F-5.2°C 20.1°F-6.6°C 90% 3.5 mph WNW5.6 kmh WNW 3.5 mph5.6 kmh 30.04 in1017.3 mb - 0.00 in0.0 mm 0.00 in0.0 mm
05:50 AM 22.6°F-5.2°C 20.1°F-6.6°C 90% 3.5 mph W5.6 kmh W 4.6 mph7.4 kmh 30.05 in1017.6 mb - 0.00 in0.0 mm 0.00 in0.0 mm
05:55 AM 22.6°F-5.2°C 20.1°F-6.6°C 90% 3.5 mph WSW5.6 kmh WSW 4.6 mph7.4 kmh 30.04 in1017.3 mb - 0.00 in0.0 mm 0.00 in0.0 mm
06:00 AM 22.6°F-5.2°C 20.1°F-6.6°C 90% 4.6 mph WSW7.4 kmh WSW 3.5 mph5.6 kmh 30.05 in1017.6 mb - 0.00 in0.0 mm 0.00 in0.0 mm
06:10 AM 22.6°F-5.2°C 20.1°F-6.6°C 90% 3.5 mph W5.6 kmh W 3.5 mph5.6 kmh 30.04 in1017.3 mb - 0.00 in0.0 mm 0.00 in0.0 mm
06:15 AM 22.6°F-5.2°C 20.1°F-6.6°C 90% 3.5 mph W5.6 kmh W 3.5 mph5.6 kmh 30.05 in1017.6 mb - 0.00 in0.0 mm 0.00 in0.0 mm
06:20 AM 22.6°F-5.2°C 20.1°F-6.6°C 90% 4.6 mph W7.4 kmh W 3.5 mph5.6 kmh 30.05 in1017.6 mb - 0.00 in0.0 mm 0.00 in0.0 mm
06:25 AM 22.6°F-5.2°C 20.1°F-6.6°C 90% 2.3 mph W3.7 kmh W 3.5 mph5.6 kmh 30.05 in1017.6 mb - 0.00 in0.0 mm 0.00 in0.0 mm
06:30 AM 22.6°F-5.2°C 20.1°F-6.6°C 90% 3.5 mph W5.6 kmh W 5.8 mph9.3 kmh 30.06 in1017.9 mb - 0.00 in0.0 mm 0.00 in0.0 mm
06:35 AM 22.6°F-5.2°C 20.1°F-6.6°C 90% 3.5 mph W5.6 kmh W 4.6 mph7.4 kmh 30.04 in1017.3 mb - 0.00 in0.0 mm 0.00 in0.0 mm
06:40 AM 22.6°F-5.2°C 20.1°F-6.6°C 90% 3.5 mph W5.6 kmh W 4.6 mph7.4 kmh 30.05 in1017.6 mb - 0.00 in0.0 mm 0.00 in0.0 mm
06:45 AM 22.6°F-5.2°C 20.1°F-6.6°C 90% 3.5 mph WSW5.6 kmh WSW 4.6 mph7.4 kmh 30.05 in1017.6 mb - 0.00 in0.0 mm 0.00 in0.0 mm
06:50 AM 22.6°F-5.2°C 20.1°F-6.6°C 90% 2.3 mph W3.7 kmh W 4.6 mph7.4 kmh 30.05 in1017.6 mb - 0.00 in0.0 mm 0.00 in0.0 mm
06:55 AM 22.6°F-5.2°C 20.1°F-6.6°C 90% 3.5 mph W5.6 kmh W 4.6 mph7.4 kmh 30.06 in1017.9 mb - 0.00 in0.0 mm 0.00 in0.0 mm
07:00 AM 22.5°F-5.3°C 20.0°F-6.7°C 90% 4.6 mph WSW7.4 kmh WSW 4.6 mph7.4 kmh 30.05 in1017.6 mb - 0.00 in0.0 mm 0.00 in0.0 mm
07:10 AM 22.5°F-5.3°C 20.0°F-6.7°C 90% 2.3 mph WSW3.7 kmh WSW 3.5 mph5.6 kmh 30.05 in1017.6 mb - 0.00 in0.0 mm 0.00 in0.0 mm
07:15 AM 22.5°F-5.3°C 20.0°F-6.7°C 90% 2.3 mph W3.7 kmh W 2.3 mph3.7 kmh 30.05 in1017.6 mb - 0.00 in0.0 mm 0.00 in0.0 mm
07:20 AM 22.5°F-5.3°C 20.0°F-6.7°C 90% 2.3 mph WSW3.7 kmh WSW 3.5 mph5.6 kmh 30.05 in1017.6 mb - 0.00 in0.0 mm 0.00 in0.0 mm
07:25 AM 22.5°F-5.3°C 20.0°F-6.7°C 90% 2.3 mph NW3.7 kmh NW 4.6 mph7.4 kmh 30.06 in1017.9 mb - 0.00 in0.0 mm 0.00 in0.0 mm
07:30 AM 22.5°F-5.3°C 20.0°F-6.7°C 90% 3.5 mph WSW5.6 kmh WSW 3.5 mph5.6 kmh 30.06 in1017.9 mb - 0.00 in0.0 mm 0.00 in0.0 mm
07:35 AM 22.5°F-5.3°C 20.0°F-6.7°C 90% 2.3 mph WSW3.7 kmh WSW 3.5 mph5.6 kmh 30.06 in1017.9 mb - 0.00 in0.0 mm 0.00 in0.0 mm
07:40 AM 22.5°F-5.3°C 20.0°F-6.7°C 90% 2.3 mph WSW3.7 kmh WSW 4.6 mph7.4 kmh 30.05 in1017.6 mb - 0.00 in0.0 mm 0.00 in0.0 mm
07:45 AM 22.5°F-5.3°C 20.0°F-6.7°C 90% 2.3 mph WSW3.7 kmh WSW 3.5 mph5.6 kmh 30.06 in1017.9 mb - 0.00 in0.0 mm 0.00 in0.0 mm
07:50 AM 22.5°F-5.3°C 20.0°F-6.7°C 90% 2.3 mph SW3.7 kmh SW 3.5 mph5.6 kmh 30.06 in1017.9 mb - 0.00 in0.0 mm 0.00 in0.0 mm
07:55 AM 22.6°F-5.2°C 20.1°F-6.6°C 90% 3.5 mph WSW5.6 kmh WSW 3.5 mph5.6 kmh 30.06 in1017.9 mb - 0.00 in0.0 mm 0.00 in0.0 mm
08:00 AM 22.6°F-5.2°C 20.1°F-6.6°C 90% 3.5 mph SW5.6 kmh SW 1.2 mph1.9 kmh 30.06 in1017.9 mb - 0.00 in0.0 mm 0.00 in0.0 mm
08:10 AM 22.8°F-5.1°C 20.3°F-6.5°C 90% 3.5 mph W5.6 kmh W 2.3 mph3.7 kmh 30.07 in1018.3 mb - 0.00 in0.0 mm 0.00 in0.0 mm
08:15 AM 22.8°F-5.1°C 20.3°F-6.5°C 90% 3.5 mph W5.6 kmh W 3.5 mph5.6 kmh 30.07 in1018.3 mb - 0.00 in0.0 mm 0.00 in0.0 mm
08:20 AM 23.2°F-4.9°C 20.7°F-6.3°C 90% 2.3 mph W3.7 kmh W 2.3 mph3.7 kmh 30.07 in1018.3 mb - 0.00 in0.0 mm 0.00 in0.0 mm
08:25 AM 23.2°F-4.9°C 20.7°F-6.3°C 90% 2.3 mph W3.7 kmh W 3.5 mph5.6 kmh 30.07 in1018.3 mb - 0.00 in0.0 mm 0.00 in0.0 mm
08:30 AM 23.4°F-4.8°C 20.9°F-6.2°C 90% 2.3 mph W3.7 kmh W 3.5 mph5.6 kmh 30.07 in1018.3 mb - 0.00 in0.0 mm 0.00 in0.0 mm
08:35 AM 23.4°F-4.8°C 20.9°F-6.2°C 90% 3.5 mph W5.6 kmh W 4.6 mph7.4 kmh 30.08 in1018.6 mb - 0.00 in0.0 mm 0.00 in0.0 mm
08:40 AM 23.4°F-4.8°C 20.9°F-6.2°C 90% 2.3 mph W3.7 kmh W 4.6 mph7.4 kmh 30.07 in1018.3 mb - 0.00 in0.0 mm 0.00 in0.0 mm
08:45 AM 23.4°F-4.8°C 20.9°F-6.2°C 90% 3.5 mph WNW5.6 kmh WNW 3.5 mph5.6 kmh 30.07 in1018.3 mb - 0.00 in0.0 mm 0.00 in0.0 mm
08:50 AM 23.7°F-4.6°C 21.2°F-6.0°C 90% 2.3 mph SW3.7 kmh SW 3.5 mph5.6 kmh 30.07 in1018.3 mb - 0.00 in0.0 mm 0.00 in0.0 mm
08:55 AM 23.7°F-4.6°C 21.2°F-6.0°C 90% 2.3 mph WNW3.7 kmh WNW 3.5 mph5.6 kmh 30.07 in1018.3 mb - 0.00 in0.0 mm 0.00 in0.0 mm
09:00 AM 24.2°F-4.3°C 21.7°F-5.7°C 90% 2.3 mph SSW3.7 kmh SSW 2.3 mph3.7 kmh 30.07 in1018.3 mb - 0.00 in0.0 mm 0.00 in0.0 mm
09:10 AM 24.4°F-4.2°C 21.4°F-5.9°C 88% 2.3 mph W3.7 kmh W 3.5 mph5.6 kmh 30.07 in1018.3 mb - 0.00 in0.0 mm 0.00 in0.0 mm
09:15 AM 24.8°F-4.0°C 21.7°F-5.7°C 88% 2.3 mph NW3.7 kmh NW 3.5 mph5.6 kmh 30.07 in1018.3 mb - 0.00 in0.0 mm 0.00 in0.0 mm
09:25 AM 24.8°F-4.0°C 21.8°F-5.7°C 88% 2.3 mph SW3.7 kmh SW 3.5 mph5.6 kmh 30.07 in1018.3 mb - 0.00 in0.0 mm 0.00 in0.0 mm
09:30 AM 25.0°F-3.9°C 21.9°F-5.6°C 88% 3.5 mph WSW5.6 kmh WSW 3.5 mph5.6 kmh 30.07 in1018.3 mb - 0.00 in0.0 mm 0.00 in0.0 mm
09:35 AM 25.2°F-3.8°C 22.1°F-5.5°C 88% 2.3 mph W3.7 kmh W 3.5 mph5.6 kmh 30.07 in1018.3 mb - 0.00 in0.0 mm 0.00 in0.0 mm
09:40 AM 25.2°F-3.8°C 22.1°F-5.5°C 88% 2.3 mph W3.7 kmh W 3.5 mph5.6 kmh 30.07 in1018.3 mb - 0.00 in0.0 mm 0.00 in0.0 mm
09:45 AM 25.2°F-3.8°C 22.2°F-5.4°C 88% 2.3 mph WNW3.7 kmh WNW 3.5 mph5.6 kmh 30.07 in1018.3 mb - 0.00 in0.0 mm 0.00 in0.0 mm
09:50 AM 25.3°F-3.7°C 22.3°F-5.4°C 88% 2.3 mph WNW3.7 kmh WNW 3.5 mph5.6 kmh 30.07 in1018.3 mb - 0.00 in0.0 mm 0.00 in0.0 mm
09:55 AM 25.9°F-3.4°C 22.8°F-5.1°C 88% 3.5 mph WNW5.6 kmh WNW 3.5 mph5.6 kmh 30.08 in1018.6 mb - 0.00 in0.0 mm 0.00 in0.0 mm
10:00 AM 25.9°F-3.4°C 22.8°F-5.1°C 88% 3.5 mph WNW5.6 kmh WNW 3.5 mph5.6 kmh 30.07 in1018.3 mb - 0.00 in0.0 mm 0.00 in0.0 mm
10:10 AM 26.1°F-3.3°C 23.0°F-5.0°C 88% 2.3 mph W3.7 kmh W 2.3 mph3.7 kmh 30.07 in1018.3 mb - 0.00 in0.0 mm 0.00 in0.0 mm
10:15 AM 26.2°F-3.2°C 23.2°F-4.9°C 88% 3.5 mph W5.6 kmh W 3.5 mph5.6 kmh 30.07 in1018.3 mb - 0.00 in0.0 mm 0.00 in0.0 mm
10:20 AM 26.5°F-3.1°C 23.5°F-4.7°C 88% 2.3 mph W3.7 kmh W 2.3 mph3.7 kmh 30.06 in1017.9 mb - 0.00 in0.0 mm 0.00 in0.0 mm
10:25 AM 26.6°F-3.0°C 23.5°F-4.7°C 88% 3.5 mph NW5.6 kmh NW 3.5 mph5.6 kmh 30.07 in1018.3 mb - 0.00 in0.0 mm 0.00 in0.0 mm
10:30 AM 26.8°F-2.9°C 23.7°F-4.6°C 88% 3.5 mph NW5.6 kmh NW 3.5 mph5.6 kmh 30.07 in1018.3 mb - 0.00 in0.0 mm 0.00 in0.0 mm
10:35 AM 26.8°F-2.9°C 23.7°F-4.6°C 88% 2.3 mph N3.7 kmh N 3.5 mph5.6 kmh 30.07 in1018.3 mb - 0.00 in0.0 mm 0.00 in0.0 mm
10:40 AM 26.8°F-2.9°C 23.7°F-4.6°C 88% 3.5 mph NNW5.6 kmh NNW 5.8 mph9.3 kmh 30.07 in1018.3 mb - 0.00 in0.0 mm 0.00 in0.0 mm
10:45 AM 26.8°F-2.9°C 23.7°F-4.6°C 88% 3.5 mph NW5.6 kmh NW 3.5 mph5.6 kmh 30.07 in1018.3 mb - 0.00 in0.0 mm 0.00 in0.0 mm
10:50 AM 27.1°F-2.7°C 24.1°F-4.4°C 88% 3.5 mph N5.6 kmh N 3.5 mph5.6 kmh 30.07 in1018.3 mb - 0.00 in0.0 mm 0.00 in0.0 mm
10:55 AM 27.3°F-2.6°C 23.7°F-4.6°C 86% 3.5 mph WNW5.6 kmh WNW 4.6 mph7.4 kmh 30.07 in1018.3 mb - 0.00 in0.0 mm 0.00 in0.0 mm
11:00 AM 27.1°F-2.7°C 23.5°F-4.7°C 86% 4.6 mph NW7.4 kmh NW 5.8 mph9.3 kmh 30.06 in1017.9 mb - 0.00 in0.0 mm 0.00 in0.0 mm
11:10 AM 26.8°F-2.9°C 23.2°F-4.9°C 86% 4.6 mph W7.4 kmh W 5.8 mph9.3 kmh 30.06 in1017.9 mb - 0.00 in0.0 mm 0.00 in0.0 mm
11:15 AM 26.8°F-2.9°C 23.2°F-4.9°C 86% 5.8 mph NW9.3 kmh NW 5.8 mph9.3 kmh 30.06 in1017.9 mb - 0.00 in0.0 mm 0.00 in0.0 mm
11:20 AM 26.7°F-2.9°C 23.6°F-4.7°C 88% 4.6 mph WNW7.4 kmh WNW 8.1 mph13.0 kmh 30.06 in1017.9 mb - 0.00 in0.0 mm 0.00 in0.0 mm
11:25 AM 27.0°F-2.8°C 23.9°F-4.5°C 88% 4.6 mph W7.4 kmh W 5.8 mph9.3 kmh 30.05 in1017.6 mb - 0.00 in0.0 mm 0.00 in0.0 mm
11:30 AM 27.1°F-2.7°C 24.1°F-4.4°C 88% 4.6 mph WNW7.4 kmh WNW 4.6 mph7.4 kmh 30.05 in1017.6 mb - 0.00 in0.0 mm 0.00 in0.0 mm
11:35 AM 27.1°F-2.7°C 24.1°F-4.4°C 88% 4.6 mph W7.4 kmh W 3.5 mph5.6 kmh 30.06 in1017.9 mb - 0.00 in0.0 mm 0.00 in0.0 mm
11:40 AM 27.1°F-2.7°C 24.1°F-4.4°C 88% 4.6 mph WNW7.4 kmh WNW 4.6 mph7.4 kmh 30.05 in1017.6 mb - 0.00 in0.0 mm 0.00 in0.0 mm
11:45 AM 27.5°F-2.5°C 24.4°F-4.2°C 88% 3.5 mph W5.6 kmh W 5.8 mph9.3 kmh 30.05 in1017.6 mb - 0.00 in0.0 mm 0.00 in0.0 mm
11:50 AM 27.3°F-2.6°C 24.2°F-4.3°C 88% 4.6 mph W7.4 kmh W 3.5 mph5.6 kmh 30.06 in1017.9 mb - 0.00 in0.0 mm 0.00 in0.0 mm
11:55 AM 27.5°F-2.5°C 24.4°F-4.2°C 88% 3.5 mph W5.6 kmh W 2.3 mph3.7 kmh 30.05 in1017.6 mb - 0.00 in0.0 mm 0.00 in0.0 mm
12:00 PM 27.5°F-2.5°C 24.4°F-4.2°C 88% 2.3 mph NW3.7 kmh NW 2.3 mph3.7 kmh 30.05 in1017.6 mb - 0.00 in0.0 mm 0.00 in0.0 mm
12:10 PM 27.5°F-2.5°C 23.9°F-4.5°C 86% 3.5 mph NW5.6 kmh NW 4.6 mph7.4 kmh 30.05 in1017.6 mb - 0.00 in0.0 mm 0.00 in0.0 mm
12:15 PM 27.5°F-2.5°C 23.9°F-4.5°C 86% 3.5 mph W5.6 kmh W 3.5 mph5.6 kmh 30.06 in1017.9 mb - 0.00 in0.0 mm 0.00 in0.0 mm
12:20 PM 27.5°F-2.5°C 23.9°F-4.5°C 86% 3.5 mph W5.6 kmh W 3.5 mph5.6 kmh 30.06 in1017.9 mb - 0.00 in0.0 mm 0.00 in0.0 mm
12:25 PM 27.3°F-2.6°C 24.2°F-4.3°C 88% 3.5 mph WSW5.6 kmh WSW 4.6 mph7.4 kmh 30.06 in1017.9 mb - 0.00 in0.0 mm 0.00 in0.0 mm
12:30 PM 27.5°F-2.5°C 24.4°F-4.2°C 88% 2.3 mph N3.7 kmh N 3.5 mph5.6 kmh 30.05 in1017.6 mb - 0.00 in0.0 mm 0.00 in0.0 mm
12:35 PM 27.5°F-2.5°C 24.4°F-4.2°C 88% 3.5 mph W5.6 kmh W 3.5 mph5.6 kmh 30.04 in1017.3 mb - 0.00 in0.0 mm 0.00 in0.0 mm
12:40 PM 27.5°F-2.5°C 24.4°F-4.2°C 88% 2.3 mph N3.7 kmh N 3.5 mph5.6 kmh 30.04 in1017.3 mb - 0.00 in0.0 mm 0.00 in0.0 mm
12:45 PM 27.5°F-2.5°C 24.4°F-4.2°C 88% 2.3 mph WNW3.7 kmh WNW 3.5 mph5.6 kmh 30.05 in1017.6 mb - 0.00 in0.0 mm 0.00 in0.0 mm
12:50 PM 27.3°F-2.6°C 24.2°F-4.3°C 88% 3.5 mph NW5.6 kmh NW 3.5 mph5.6 kmh 30.05 in1017.6 mb - 0.00 in0.0 mm 0.00 in0.0 mm
12:55 PM 27.5°F-2.5°C 24.4°F-4.2°C 88% 2.3 mph W3.7 kmh W 3.5 mph5.6 kmh 30.05 in1017.6 mb - 0.00 in0.0 mm 0.00 in0.0 mm
01:00 PM 27.3°F-2.6°C 24.2°F-4.3°C 88% 4.6 mph NW7.4 kmh NW 4.6 mph7.4 kmh 30.05 in1017.6 mb - 0.00 in0.0 mm 0.00 in0.0 mm
01:10 PM 27.5°F-2.5°C 24.4°F-4.2°C 88% 2.3 mph NNE3.7 kmh NNE 3.5 mph5.6 kmh 30.04 in1017.3 mb - 0.00 in0.0 mm 0.00 in0.0 mm
01:15 PM 27.6°F-2.4°C 24.0°F-4.4°C 86% 2.3 mph NNW3.7 kmh NNW 2.3 mph3.7 kmh 30.04 in1017.3 mb - 0.00 in0.0 mm 0.00 in0.0 mm
01:20 PM 27.7°F-2.4°C 24.0°F-4.4°C 86% 1.2 mph WNW1.9 kmh WNW 3.5 mph5.6 kmh 30.05 in1017.6 mb - 0.00 in0.0 mm 0.00 in0.0 mm
01:25 PM 27.5°F-2.5°C 23.9°F-4.5°C 86% 3.5 mph W5.6 kmh W 2.3 mph3.7 kmh 30.05 in1017.6 mb - 0.00 in0.0 mm 0.00 in0.0 mm
01:30 PM 27.5°F-2.5°C 23.9°F-4.5°C 86% 3.5 mph W5.6 kmh W 3.5 mph5.6 kmh 30.05 in1017.6 mb - 0.00 in0.0 mm 0.00 in0.0 mm
01:35 PM 27.3°F-2.6°C 23.7°F-4.6°C 86% 3.5 mph W5.6 kmh W 3.5 mph5.6 kmh 30.05 in1017.6 mb - 0.00 in0.0 mm 0.00 in0.0 mm
01:40 PM 27.5°F-2.5°C 24.4°F-4.2°C 88% 2.3 mph N3.7 kmh N 3.5 mph5.6 kmh 30.05 in1017.6 mb - 0.00 in0.0 mm 0.00 in0.0 mm
01:45 PM 27.5°F-2.5°C 24.4°F-4.2°C 88% 2.3 mph NW3.7 kmh NW 2.3 mph3.7 kmh 30.04 in1017.3 mb - 0.00 in0.0 mm 0.00 in0.0 mm
01:50 PM 27.5°F-2.5°C 24.4°F-4.2°C 88% 2.3 mph WNW3.7 kmh WNW 2.3 mph3.7 kmh 30.05 in1017.6 mb - 0.00 in0.0 mm 0.00 in0.0 mm
01:55 PM 27.5°F-2.5°C 24.4°F-4.2°C 88% 2.3 mph NNW3.7 kmh NNW 3.5 mph5.6 kmh 30.05 in1017.6 mb - 0.00 in0.0 mm 0.00 in0.0 mm
02:00 PM 27.5°F-2.5°C 24.4°F-4.2°C 88% 2.3 mph NNW3.7 kmh NNW 3.5 mph5.6 kmh 30.05 in1017.6 mb - 0.00 in0.0 mm 0.00 in0.0 mm
02:10 PM 27.5°F-2.5°C 24.4°F-4.2°C 88% 2.3 mph W3.7 kmh W 3.5 mph5.6 kmh 30.05 in1017.6 mb - 0.00 in0.0 mm 0.00 in0.0 mm
02:15 PM 27.7°F-2.4°C 24.6°F-4.1°C 88% 3.5 mph W5.6 kmh W 3.5 mph5.6 kmh 30.05 in1017.6 mb - 0.00 in0.0 mm 0.00 in0.0 mm
02:20 PM 27.7°F-2.4°C 24.6°F-4.1°C 88% 2.3 mph N3.7 kmh N 2.3 mph3.7 kmh 30.05 in1017.6 mb - 0.00 in0.0 mm 0.00 in0.0 mm
02:25 PM 27.7°F-2.4°C 24.6°F-4.1°C 88% 2.3 mph NE3.7 kmh NE 2.3 mph3.7 kmh 30.04 in1017.3 mb - 0.00 in0.0 mm 0.00 in0.0 mm
02:30 PM 27.7°F-2.4°C 24.6°F-4.1°C 88% 1.2 mph NW1.9 kmh NW 2.3 mph3.7 kmh 30.04 in1017.3 mb - 0.00 in0.0 mm 0.00 in0.0 mm
02:35 PM 27.7°F-2.4°C 24.6°F-4.1°C 88% 2.3 mph NW3.7 kmh NW 2.3 mph3.7 kmh 30.05 in1017.6 mb - 0.00 in0.0 mm 0.00 in0.0 mm
02:40 PM 27.5°F-2.5°C 24.4°F-4.2°C 88% 2.3 mph NW3.7 kmh NW 2.3 mph3.7 kmh 30.06 in1017.9 mb - 0.00 in0.0 mm 0.00 in0.0 mm
02:45 PM 27.5°F-2.5°C 24.4°F-4.2°C 88% 2.3 mph NW3.7 kmh NW 2.3 mph3.7 kmh 30.06 in1017.9 mb - 0.00 in0.0 mm 0.00 in0.0 mm
02:50 PM 27.5°F-2.5°C 24.4°F-4.2°C 88% 2.3 mph N3.7 kmh N 2.3 mph3.7 kmh 30.06 in1017.9 mb - 0.00 in0.0 mm 0.00 in0.0 mm
02:55 PM 27.5°F-2.5°C 24.4°F-4.2°C 88% 1.2 mph WNW1.9 kmh WNW 2.3 mph3.7 kmh 30.06 in1017.9 mb - 0.00 in0.0 mm 0.00 in0.0 mm
03:00 PM 27.5°F-2.5°C 24.4°F-4.2°C 88% 2.3 mph NE3.7 kmh NE 2.3 mph3.7 kmh 30.05 in1017.6 mb - 0.00 in0.0 mm 0.00 in0.0 mm
03:10 PM 27.5°F-2.5°C 24.4°F-4.2°C 88% 1.2 mph NE1.9 kmh NE 2.3 mph3.7 kmh 30.07 in1018.3 mb - 0.00 in0.0 mm 0.00 in0.0 mm
03:15 PM 27.5°F-2.5°C 24.4°F-4.2°C 88% 1.2 mph E1.9 kmh E 2.3 mph3.7 kmh 30.06 in1017.9 mb - 0.00 in0.0 mm 0.00 in0.0 mm
03:20 PM 27.5°F-2.5°C 24.4°F-4.2°C 88% 1.2 mph NE1.9 kmh NE -- 30.06 in1017.9 mb - 0.00 in0.0 mm 0.00 in0.0 mm
03:25 PM 27.5°F-2.5°C 24.4°F-4.2°C 88% 1.2 mph NE1.9 kmh NE 1.2 mph1.9 kmh 30.06 in1017.9 mb - 0.00 in0.0 mm 0.00 in0.0 mm
03:30 PM 27.5°F-2.5°C 24.4°F-4.2°C 88% 2.3 mph E3.7 kmh E 2.3 mph3.7 kmh 30.06 in1017.9 mb - 0.00 in0.0 mm 0.00 in0.0 mm
03:35 PM 27.3°F-2.6°C 24.2°F-4.3°C 88% 1.2 mph ENE1.9 kmh ENE 2.3 mph3.7 kmh 30.07 in1018.3 mb - 0.00 in0.0 mm 0.00 in0.0 mm
03:40 PM 27.3°F-2.6°C 24.2°F-4.3°C 88% 1.2 mph NW1.9 kmh NW 2.3 mph3.7 kmh 30.06 in1017.9 mb - 0.00 in0.0 mm 0.00 in0.0 mm
03:45 PM 27.2°F-2.7°C 24.1°F-4.4°C 88% 1.2 mph ENE1.9 kmh ENE 2.3 mph3.7 kmh 30.05 in1017.6 mb - 0.00 in0.0 mm 0.00 in0.0 mm
03:50 PM 27.1°F-2.7°C 24.1°F-4.4°C 88% 2.3 mph ENE3.7 kmh ENE 3.5 mph5.6 kmh 30.06 in1017.9 mb - 0.00 in0.0 mm 0.00 in0.0 mm
03:55 PM 27.1°F-2.7°C 24.1°F-4.4°C 88% 2.3 mph E3.7 kmh E 2.3 mph3.7 kmh 30.07 in1018.3 mb - 0.00 in0.0 mm 0.00 in0.0 mm
04:00 PM 27.1°F-2.7°C 24.1°F-4.4°C 88% 1.2 mph E1.9 kmh E 1.2 mph1.9 kmh 30.07 in1018.3 mb - 0.00 in0.0 mm 0.00 in0.0 mm
04:10 PM 27.0°F-2.8°C 23.9°F-4.5°C 88% 1.2 mph NNE1.9 kmh NNE 2.3 mph3.7 kmh 30.06 in1017.9 mb - 0.00 in0.0 mm 0.00 in0.0 mm
04:15 PM 27.0°F-2.8°C 23.9°F-4.5°C 88% 2.3 mph N3.7 kmh N 2.3 mph3.7 kmh 30.06 in1017.9 mb - 0.00 in0.0 mm 0.00 in0.0 mm
04:20 PM 27.0°F-2.8°C 23.9°F-4.5°C 88% 1.2 mph NNE1.9 kmh NNE -- 30.06 in1017.9 mb - 0.00 in0.0 mm 0.00 in0.0 mm
04:25 PM 26.8°F-2.9°C 23.7°F-4.6°C 88% Calm Calm -- 30.07 in1018.3 mb - 0.00 in0.0 mm 0.00 in0.0 mm
04:30 PM 26.8°F-2.9°C 23.7°F-4.6°C 88% 1.2 mph NE1.9 kmh NE 1.2 mph1.9 kmh 30.06 in1017.9 mb - 0.00 in0.0 mm 0.00 in0.0 mm
04:35 PM 26.8°F-2.9°C 23.7°F-4.6°C 88% 1.2 mph NE1.9 kmh NE 2.3 mph3.7 kmh 30.06 in1017.9 mb - 0.00 in0.0 mm 0.00 in0.0 mm
04:40 PM 26.8°F-2.9°C 23.7°F-4.6°C 88% 1.2 mph ENE1.9 kmh ENE 3.5 mph5.6 kmh 30.07 in1018.3 mb - 0.00 in0.0 mm 0.00 in0.0 mm
04:45 PM 26.8°F-2.9°C 23.7°F-4.6°C 88% 1.2 mph NNE1.9 kmh NNE 2.3 mph3.7 kmh 30.06 in1017.9 mb - 0.00 in0.0 mm 0.00 in0.0 mm
04:50 PM 26.8°F-2.9°C 23.7°F-4.6°C 88% 2.3 mph E3.7 kmh E 2.3 mph3.7 kmh 30.06 in1017.9 mb - 0.00 in0.0 mm 0.00 in0.0 mm
04:55 PM 26.8°F-2.9°C 23.7°F-4.6°C 88% 2.3 mph E3.7 kmh E 2.3 mph3.7 kmh 30.06 in1017.9 mb - 0.00 in0.0 mm 0.00 in0.0 mm
05:00 PM 26.8°F-2.9°C 23.7°F-4.6°C 88% 1.2 mph E1.9 kmh E 1.2 mph1.9 kmh 30.06 in1017.9 mb - 0.00 in0.0 mm 0.00 in0.0 mm
05:10 PM 26.6°F-3.0°C 23.5°F-4.7°C 88% 2.3 mph E3.7 kmh E 3.5 mph5.6 kmh 30.06 in1017.9 mb - 0.00 in0.0 mm 0.00 in0.0 mm
05:15 PM 26.6°F-3.0°C 23.5°F-4.7°C 88% 1.2 mph E1.9 kmh E 2.3 mph3.7 kmh 30.07 in1018.3 mb - 0.00 in0.0 mm 0.00 in0.0 mm
05:20 PM 26.6°F-3.0°C 23.5°F-4.7°C 88% 1.2 mph E1.9 kmh E 2.3 mph3.7 kmh 30.07 in1018.3 mb - 0.00 in0.0 mm 0.00 in0.0 mm
05:25 PM 26.6°F-3.0°C 23.5°F-4.7°C 88% 2.3 mph E3.7 kmh E 2.3 mph3.7 kmh 30.06 in1017.9 mb - 0.00 in0.0 mm 0.00 in0.0 mm
05:30 PM 26.6°F-3.0°C 23.5°F-4.7°C 88% 2.3 mph E3.7 kmh E 3.5 mph5.6 kmh 30.06 in1017.9 mb - 0.00 in0.0 mm 0.00 in0.0 mm
05:35 PM 26.6°F-3.0°C 23.5°F-4.7°C 88% 2.3 mph E3.7 kmh E 3.5 mph5.6 kmh 30.06 in1017.9 mb - 0.00 in0.0 mm 0.00 in0.0 mm
05:40 PM 26.6°F-3.0°C 23.5°F-4.7°C 88% 2.3 mph NE3.7 kmh NE 2.3 mph3.7 kmh 30.06 in1017.9 mb - 0.00 in0.0 mm 0.00 in0.0 mm
05:45 PM 26.6°F-3.0°C 23.5°F-4.7°C 88% 1.2 mph E1.9 kmh E 2.3 mph3.7 kmh 30.07 in1018.3 mb - 0.00 in0.0 mm 0.00 in0.0 mm
05:50 PM 26.6°F-3.0°C 23.5°F-4.7°C 88% 1.2 mph E1.9 kmh E 2.3 mph3.7 kmh 30.07 in1018.3 mb - 0.00 in0.0 mm 0.00 in0.0 mm
05:55 PM 26.6°F-3.0°C 23.5°F-4.7°C 88% 2.3 mph ENE3.7 kmh ENE 2.3 mph3.7 kmh 30.07 in1018.3 mb - 0.00 in0.0 mm 0.00 in0.0 mm
06:00 PM 26.6°F-3.0°C 23.5°F-4.7°C 88% 1.2 mph E1.9 kmh E 1.2 mph1.9 kmh 30.07 in1018.3 mb - 0.00 in0.0 mm 0.00 in0.0 mm
06:10 PM 26.6°F-3.0°C 23.5°F-4.7°C 88% 1.2 mph E1.9 kmh E 2.3 mph3.7 kmh 30.08 in1018.6 mb - 0.00 in0.0 mm 0.00 in0.0 mm
06:15 PM 26.6°F-3.0°C 23.5°F-4.7°C 88% 2.3 mph E3.7 kmh E 2.3 mph3.7 kmh 30.08 in1018.6 mb - 0.00 in0.0 mm 0.00 in0.0 mm
06:20 PM 26.6°F-3.0°C 23.5°F-4.7°C 88% 2.3 mph E3.7 kmh E 3.5 mph5.6 kmh 30.08 in1018.6 mb - 0.00 in0.0 mm 0.00 in0.0 mm
06:25 PM 26.6°F-3.0°C 23.5°F-4.7°C 88% 3.5 mph ESE5.6 kmh ESE 3.5 mph5.6 kmh 30.09 in1019.0 mb - 0.00 in0.0 mm 0.00 in0.0 mm
06:30 PM 26.6°F-3.0°C 23.5°F-4.7°C 88% 3.5 mph ESE5.6 kmh ESE 2.3 mph3.7 kmh 30.08 in1018.6 mb - 0.00 in0.0 mm 0.00 in0.0 mm
06:35 PM 26.6°F-3.0°C 23.5°F-4.7°C 88% 1.2 mph ESE1.9 kmh ESE 3.5 mph5.6 kmh 30.08 in1018.6 mb - 0.00 in0.0 mm 0.00 in0.0 mm
06:40 PM 26.2°F-3.2°C 23.2°F-4.9°C 88% 2.3 mph ESE3.7 kmh ESE 2.3 mph3.7 kmh 30.08 in1018.6 mb - 0.00 in0.0 mm 0.00 in0.0 mm
06:45 PM 26.2°F-3.2°C 23.2°F-4.9°C 88% 1.2 mph ESE1.9 kmh ESE 2.3 mph3.7 kmh 30.08 in1018.6 mb - 0.00 in0.0 mm 0.00 in0.0 mm
06:50 PM 26.2°F-3.2°C 23.2°F-4.9°C 88% 2.3 mph ESE3.7 kmh ESE 3.5 mph5.6 kmh 30.08 in1018.6 mb - 0.00 in0.0 mm 0.00 in0.0 mm
06:55 PM 26.2°F-3.2°C 23.2°F-4.9°C 88% 3.5 mph ESE5.6 kmh ESE 3.5 mph5.6 kmh 30.07 in1018.3 mb - 0.00 in0.0 mm 0.00 in0.0 mm
07:00 PM 26.2°F-3.2°C 23.2°F-4.9°C 88% 3.5 mph ENE5.6 kmh ENE 3.5 mph5.6 kmh 30.08 in1018.6 mb - 0.00 in0.0 mm 0.00 in0.0 mm
07:10 PM 26.2°F-3.2°C 23.2°F-4.9°C 88% 2.3 mph SE3.7 kmh SE 4.6 mph7.4 kmh 30.07 in1018.3 mb - 0.00 in0.0 mm 0.00 in0.0 mm
07:15 PM 26.2°F-3.2°C 23.2°F-4.9°C 88% 2.3 mph ESE3.7 kmh ESE 2.3 mph3.7 kmh 30.08 in1018.6 mb - 0.00 in0.0 mm 0.00 in0.0 mm
07:20 PM 26.2°F-3.2°C 23.2°F-4.9°C 88% 2.3 mph ESE3.7 kmh ESE 2.3 mph3.7 kmh 30.07 in1018.3 mb - 0.00 in0.0 mm 0.00 in0.0 mm
07:25 PM 26.2°F-3.2°C 23.2°F-4.9°C 88% 2.3 mph ESE3.7 kmh ESE 2.3 mph3.7 kmh 30.07 in1018.3 mb - 0.00 in0.0 mm 0.00 in0.0 mm
07:30 PM 26.2°F-3.2°C 23.2°F-4.9°C 88% 2.3 mph S3.7 kmh S 3.5 mph5.6 kmh 30.08 in1018.6 mb - 0.00 in0.0 mm 0.00 in0.0 mm
07:35 PM 26.2°F-3.2°C 23.2°F-4.9°C 88% 2.3 mph ESE3.7 kmh ESE 2.3 mph3.7 kmh 30.08 in1018.6 mb - 0.00 in0.0 mm 0.00 in0.0 mm
07:40 PM 26.2°F-3.2°C 23.2°F-4.9°C 88% 2.3 mph S3.7 kmh S 2.3 mph3.7 kmh 30.09 in1019.0 mb - 0.00 in0.0 mm 0.00 in0.0 mm
07:45 PM 26.2°F-3.2°C 23.2°F-4.9°C 88% 1.2 mph SE1.9 kmh SE 2.3 mph3.7 kmh 30.09 in1019.0 mb - 0.00 in0.0 mm 0.00 in0.0 mm
07:50 PM 26.2°F-3.2°C 23.2°F-4.9°C 88% 2.3 mph ESE3.7 kmh ESE 2.3 mph3.7 kmh 30.08 in1018.6 mb - 0.00 in0.0 mm 0.00 in0.0 mm
07:55 PM 26.2°F-3.2°C 23.2°F-4.9°C 88% 1.2 mph ESE1.9 kmh ESE 1.2 mph1.9 kmh 30.08 in1018.6 mb - 0.00 in0.0 mm 0.00 in0.0 mm
08:00 PM 26.2°F-3.2°C 23.2°F-4.9°C 88% 1.2 mph ESE1.9 kmh ESE 2.3 mph3.7 kmh 30.07 in1018.3 mb - 0.00 in0.0 mm 0.00 in0.0 mm
08:10 PM 26.2°F-3.2°C 23.2°F-4.9°C 88% 1.2 mph ESE1.9 kmh ESE 1.2 mph1.9 kmh 30.07 in1018.3 mb - 0.00 in0.0 mm 0.00 in0.0 mm
08:15 PM 26.2°F-3.2°C 23.2°F-4.9°C 88% 1.2 mph ESE1.9 kmh ESE -- 30.07 in1018.3 mb - 0.00 in0.0 mm 0.00 in0.0 mm
08:20 PM 26.2°F-3.2°C 23.2°F-4.9°C 88% Calm Calm -- 30.06 in1017.9 mb - 0.00 in0.0 mm 0.00 in0.0 mm
08:25 PM 26.2°F-3.2°C 23.2°F-4.9°C 88% Calm Calm -- 30.06 in1017.9 mb - 0.00 in0.0 mm 0.00 in0.0 mm
08:30 PM 26.2°F-3.2°C 23.2°F-4.9°C 88% 1.2 mph SE1.9 kmh SE 1.2 mph1.9 kmh 30.06 in1017.9 mb - 0.00 in0.0 mm 0.00 in0.0 mm
08:35 PM 26.2°F-3.2°C 23.2°F-4.9°C 88% Calm Calm 2.3 mph3.7 kmh 30.05 in1017.6 mb - 0.00 in0.0 mm 0.00 in0.0 mm
08:40 PM 26.2°F-3.2°C 23.2°F-4.9°C 88% Calm Calm -- 30.06 in1017.9 mb - 0.00 in0.0 mm 0.00 in0.0 mm
08:45 PM 26.2°F-3.2°C 23.2°F-4.9°C 88% Calm Calm -- 30.05 in1017.6 mb - 0.00 in0.0 mm 0.00 in0.0 mm
08:50 PM 26.2°F-3.2°C 23.2°F-4.9°C 88% Calm Calm -- 30.06 in1017.9 mb - 0.00 in0.0 mm 0.00 in0.0 mm
08:55 PM 26.2°F-3.2°C 23.2°F-4.9°C 88% Calm Calm -- 30.05 in1017.6 mb - 0.00 in0.0 mm 0.00 in0.0 mm
09:00 PM 26.2°F-3.2°C 23.2°F-4.9°C 88% 1.2 mph S1.9 kmh S 2.3 mph3.7 kmh 30.05 in1017.6 mb - 0.00 in0.0 mm 0.00 in0.0 mm
09:10 PM 26.2°F-3.2°C 23.2°F-4.9°C 88% Calm Calm -- 30.05 in1017.6 mb - 0.00 in0.0 mm 0.00 in0.0 mm
09:15 PM 26.2°F-3.2°C 23.2°F-4.9°C 88% Calm Calm -- 30.05 in1017.6 mb - 0.00 in0.0 mm 0.00 in0.0 mm
09:20 PM 26.2°F-3.2°C 23.2°F-4.9°C 88% Calm Calm 1.2 mph1.9 kmh 30.05 in1017.6 mb - 0.00 in0.0 mm 0.00 in0.0 mm
09:25 PM 26.2°F-3.2°C 23.2°F-4.9°C 88% 1.2 mph SE1.9 kmh SE 1.2 mph1.9 kmh 30.05 in1017.6 mb - 0.00 in0.0 mm 0.00 in0.0 mm
09:30 PM 26.2°F-3.2°C 23.2°F-4.9°C 88% 1.2 mph ESE1.9 kmh ESE 1.2 mph1.9 kmh 30.05 in1017.6 mb - 0.00 in0.0 mm 0.00 in0.0 mm
09:35 PM 26.2°F-3.2°C 23.2°F-4.9°C 88% 1.2 mph ESE1.9 kmh ESE 2.3 mph3.7 kmh 30.04 in1017.3 mb - 0.00 in0.0 mm 0.00 in0.0 mm
09:40 PM 26.2°F-3.2°C 23.2°F-4.9°C 88% 1.2 mph ESE1.9 kmh ESE 1.2 mph1.9 kmh 30.04 in1017.3 mb - 0.00 in0.0 mm 0.00 in0.0 mm
09:45 PM 26.2°F-3.2°C 23.2°F-4.9°C 88% Calm Calm -- 30.04 in1017.3 mb - 0.00 in0.0 mm 0.00 in0.0 mm
09:50 PM 26.2°F-3.2°C 23.2°F-4.9°C 88% 1.2 mph ESE1.9 kmh ESE 2.3 mph3.7 kmh 30.04 in1017.3 mb - 0.00 in0.0 mm 0.00 in0.0 mm
09:55 PM 26.2°F-3.2°C 23.2°F-4.9°C 88% Calm Calm 1.2 mph1.9 kmh 30.04 in1017.3 mb - 0.00 in0.0 mm 0.00 in0.0 mm
10:00 PM 26.2°F-3.2°C 23.2°F-4.9°C 88% Calm Calm -- 30.05 in1017.6 mb - 0.00 in0.0 mm 0.00 in0.0 mm
10:10 PM 26.2°F-3.2°C 23.2°F-4.9°C 88% Calm Calm -- 30.05 in1017.6 mb - 0.00 in0.0 mm 0.00 in0.0 mm
10:15 PM 26.2°F-3.2°C 23.2°F-4.9°C 88% Calm Calm -- 30.04 in1017.3 mb - 0.00 in0.0 mm 0.00 in0.0 mm
10:20 PM 26.2°F-3.2°C 23.2°F-4.9°C 88% 1.2 mph NNE1.9 kmh NNE 2.3 mph3.7 kmh 30.04 in1017.3 mb - 0.00 in0.0 mm 0.00 in0.0 mm
10:25 PM 26.2°F-3.2°C 23.7°F-4.6°C 90% Calm Calm -- 30.04 in1017.3 mb - 0.00 in0.0 mm 0.00 in0.0 mm
10:30 PM 26.2°F-3.2°C 23.7°F-4.6°C 90% 1.2 mph NNE1.9 kmh NNE 1.2 mph1.9 kmh 30.04 in1017.3 mb - 0.00 in0.0 mm 0.00 in0.0 mm
10:35 PM 26.2°F-3.2°C 23.7°F-4.6°C 90% 1.2 mph NNE1.9 kmh NNE 1.2 mph1.9 kmh 30.04 in1017.3 mb - 0.00 in0.0 mm 0.00 in0.0 mm
10:40 PM 26.2°F-3.2°C 23.7°F-4.6°C 90% 2.3 mph NNE3.7 kmh NNE 2.3 mph3.7 kmh 30.04 in1017.3 mb - 0.00 in0.0 mm 0.00 in0.0 mm
10:45 PM 26.2°F-3.2°C 23.7°F-4.6°C 90% 1.2 mph NE1.9 kmh NE 2.3 mph3.7 kmh 30.04 in1017.3 mb - 0.00 in0.0 mm 0.00 in0.0 mm
10:50 PM 26.2°F-3.2°C 23.7°F-4.6°C 90% 2.3 mph ENE3.7 kmh ENE 2.3 mph3.7 kmh 30.03 in1016.9 mb - 0.00 in0.0 mm 0.00 in0.0 mm
10:55 PM 26.6°F-3.0°C 24.1°F-4.4°C 90% 1.2 mph NE1.9 kmh NE 1.2 mph1.9 kmh 30.03 in1016.9 mb - 0.00 in0.0 mm 0.00 in0.0 mm
11:00 PM 26.6°F-3.0°C 24.1°F-4.4°C 90% Calm Calm -- 30.03 in1016.9 mb - 0.00 in0.0 mm 0.00 in0.0 mm
11:10 PM 26.6°F-3.0°C 24.1°F-4.4°C 90% 1.2 mph NE1.9 kmh NE 1.2 mph1.9 kmh 30.02 in1016.6 mb - 0.00 in0.0 mm 0.00 in0.0 mm
11:15 PM 26.6°F-3.0°C 24.1°F-4.4°C 90% 1.2 mph NE1.9 kmh NE 2.3 mph3.7 kmh 30.02 in1016.6 mb - 0.00 in0.0 mm 0.00 in0.0 mm
11:20 PM 26.6°F-3.0°C 24.1°F-4.4°C 90% 1.2 mph ENE1.9 kmh ENE 2.3 mph3.7 kmh 30.02 in1016.6 mb - 0.00 in0.0 mm 0.00 in0.0 mm
11:25 PM 26.8°F-2.9°C 24.2°F-4.3°C 90% 1.2 mph ENE1.9 kmh ENE 2.3 mph3.7 kmh 30.01 in1016.3 mb - 0.00 in0.0 mm 0.00 in0.0 mm
11:30 PM 26.8°F-2.9°C 24.2°F-4.3°C 90% 1.2 mph NE1.9 kmh NE 2.3 mph3.7 kmh 30.01 in1016.3 mb - 0.00 in0.0 mm 0.00 in0.0 mm
11:35 PM 26.8°F-2.9°C 24.2°F-4.3°C 90% 1.2 mph ENE1.9 kmh ENE 2.3 mph3.7 kmh 30.01 in1016.3 mb - 0.00 in0.0 mm 0.00 in0.0 mm
11:40 PM 26.8°F-2.9°C 24.2°F-4.3°C 90% 1.2 mph NE1.9 kmh NE 2.3 mph3.7 kmh 30.01 in1016.3 mb - 0.00 in0.0 mm 0.00 in0.0 mm
11:45 PM 26.8°F-2.9°C 24.2°F-4.3°C 90% 2.3 mph N3.7 kmh N 2.3 mph3.7 kmh 30.00 in1015.9 mb - 0.00 in0.0 mm 0.00 in0.0 mm
11:50 PM 26.9°F-2.8°C 24.3°F-4.3°C 90% 1.2 mph NE1.9 kmh NE 2.3 mph3.7 kmh 30.01 in1016.3 mb - 0.00 in0.0 mm 0.00 in0.0 mm
11:55 PM 27.0°F-2.8°C 24.4°F-4.2°C 90% 1.2 mph NE1.9 kmh NE 2.3 mph3.7 kmh 30.00 in1015.9 mb - 0.00 in0.0 mm 0.00 in0.0 mm